首页
METAR-TAF:

METAR-TAF

机场 :

古晉國際機場

古晉, 马来西亚

纬度: 01-29N, 经度: 110-20E, 海拔: 27米

当前天气观测

该预报发布于29分钟前的00:00 UTC
风速2节,风向多变
温度 24°C
湿度 100%
气压 1013 hPa
能见度10公里或以上
少量云层高于500英尺
少量云层高于1500英尺, 积雨云.
散云层高于1600英尺
雷暴, 小雨,

METAR: WBGG 260000Z VRB02KT 9999 -TSRA FEW005 FEW015CB SCT016 24/24 Q1013 NOSIG

时间: 08:29 (00:29 UTC)

预报

该预报发布于1小时和29分钟前的23:00 UTC
预报有效从26日的 00点(UTC)到 27日的 00点(UTC)
风速3节,风向多变
能见度10公里或以上
散云层高于1600英尺
短暂存在
从 26日的 00点(UTC)到 26日的 04点(UTC)
能見度: 3000
少量云层高于1500英尺, 积雨云.
散云层高于2000英尺
雷暴, 大雨,

TAF: WBGG 252300Z 2600/2700 VRB03KT 9999 SCT016 TEMPO 2600/2604 3000 +TSRA FEW015CB SCT020

超过4000个机场的气象观测和天气预报(METAR&TAF报告)。

可查询的气象台以黄色和红色小点在地图上表示。

将鼠标移到小点上方,可查看气象台名称。

然后点击查看天气观测和预报。

如需切换地图:点击带黑十字的绿色按钮放大地图;点击带横线的绿色按钮缩小地图;或者点击绿色箭头查看邻近地区的地图。


METAR-TAF: